createdAt,value
2022-11-21T00:00:55.417Z,4.2
2022-11-21T00:02:01.661Z,4.2
2022-11-21T00:03:07.952Z,4.2
2022-11-21T00:04:14.208Z,4.2
2022-11-21T00:05:20.487Z,4.2
2022-11-21T00:06:26.763Z,4.2
2022-11-21T00:07:33.033Z,4.2
2022-11-21T00:08:39.301Z,4.2
2022-11-21T00:09:45.570Z,4.2
2022-11-21T00:10:51.851Z,4.2
2022-11-21T00:11:58.117Z,4.2
2022-11-21T00:13:04.393Z,4.2
2022-11-21T00:14:10.663Z,4.1
2022-11-21T00:15:15.951Z,4.1
2022-11-21T00:16:22.222Z,4.2
2022-11-21T00:17:28.492Z,4.2
2022-11-21T00:18:34.767Z,4.1
2022-11-21T00:19:41.035Z,4.2
2022-11-21T00:20:47.308Z,4.1
2022-11-21T00:21:53.578Z,4.2
2022-11-21T00:22:58.881Z,4.2
2022-11-21T00:24:04.169Z,4.2
2022-11-21T00:25:09.468Z,4.2
2022-11-21T00:26:14.756Z,4.2
2022-11-21T00:27:21.028Z,4.2
2022-11-21T00:28:27.310Z,4.2
2022-11-21T00:29:33.569Z,4.2
2022-11-21T00:30:39.851Z,4.2
2022-11-21T00:31:46.141Z,4.2
2022-11-21T00:32:52.389Z,4.2
2022-11-21T00:33:58.680Z,4.2
2022-11-21T00:35:04.927Z,4.2
2022-11-21T00:36:11.204Z,4.2
2022-11-21T00:37:17.477Z,4.2
2022-11-21T00:38:23.767Z,4.2
2022-11-21T00:39:30.019Z,4.2
2022-11-21T00:40:35.325Z,4.2
2022-11-21T00:41:41.576Z,4.2
2022-11-21T00:42:47.869Z,4.2
2022-11-21T00:43:54.128Z,4.2
2022-11-21T00:45:00.402Z,4.2
2022-11-21T00:46:06.674Z,4.2
2022-11-21T00:47:12.945Z,4.2
2022-11-21T00:48:18.246Z,4.2
2022-11-21T00:49:23.530Z,4.2
2022-11-21T00:50:29.792Z,4.2
2022-11-21T00:51:36.075Z,4.2
2022-11-21T00:52:42.368Z,4.2
2022-11-21T00:53:48.622Z,4.2
2022-11-21T00:54:54.893Z,4.2
2022-11-21T00:56:01.170Z,4.2
2022-11-21T00:57:07.441Z,4.2
2022-11-21T00:58:13.705Z,4.2
2022-11-21T00:59:19.984Z,4.2
2022-11-21T01:00:26.256Z,4.2
2022-11-21T01:01:32.525Z,4.2
2022-11-21T01:02:38.796Z,4.2
2022-11-21T01:03:44.104Z,4.2
2022-11-21T01:04:50.351Z,4.2
2022-11-21T01:05:56.659Z,4.2
2022-11-21T01:07:02.902Z,4.2
2022-11-21T01:08:09.203Z,4.2
2022-11-21T01:09:15.453Z,4.2
2022-11-21T01:10:21.721Z,4.2
2022-11-21T01:11:27.020Z,4.2
2022-11-21T01:12:32.310Z,4.2
2022-11-21T01:13:37.607Z,4.2
2022-11-21T01:14:42.892Z,4.2
2022-11-21T01:15:49.161Z,4.1
2022-11-21T01:16:55.455Z,4.2
2022-11-21T01:18:01.728Z,4.1
2022-11-21T01:19:07.994Z,4.1
2022-11-21T01:20:14.256Z,4.1
2022-11-21T01:21:20.524Z,4.1
2022-11-21T01:22:26.800Z,4.1
2022-11-21T01:23:33.074Z,4.1
2022-11-21T01:24:39.347Z,4.1
2022-11-21T01:25:45.618Z,4.1
2022-11-21T01:26:51.888Z,4
2022-11-21T01:27:58.160Z,4
2022-11-21T01:29:03.460Z,4
2022-11-21T01:30:09.732Z,4
2022-11-21T01:31:15.997Z,4
2022-11-21T01:32:22.262Z,4
2022-11-21T01:33:28.539Z,4
2022-11-21T01:34:34.821Z,4
2022-11-21T01:35:41.075Z,4.1
2022-11-21T01:36:46.383Z,4
2022-11-21T01:37:51.692Z,4
2022-11-21T01:38:56.971Z,4.1
2022-11-21T01:40:02.259Z,4
2022-11-21T01:41:08.527Z,4
2022-11-21T01:42:14.800Z,4
2022-11-21T01:43:21.072Z,4
2022-11-21T01:44:27.351Z,4
2022-11-21T01:45:33.624Z,4
2022-11-21T01:46:39.895Z,4
2022-11-21T01:47:46.167Z,3.9
2022-11-21T01:48:52.431Z,3.9
2022-11-21T01:49:58.708Z,3.9
2022-11-21T01:51:04.978Z,3.9
2022-11-21T01:52:11.250Z,3.9
2022-11-21T01:53:17.536Z,3.9
2022-11-21T01:54:22.803Z,3.9
2022-11-21T01:55:29.090Z,4
2022-11-21T01:56:35.360Z,3.9
2022-11-21T01:57:41.630Z,3.9
2022-11-21T01:58:47.903Z,3.9
2022-11-21T01:59:54.176Z,3.9
2022-11-21T02:01:00.442Z,3.9
2022-11-21T02:02:05.745Z,3.9
2022-11-21T02:03:11.027Z,3.9
2022-11-21T02:04:16.329Z,3.9
2022-11-21T02:05:21.618Z,3.9
2022-11-21T02:06:27.894Z,3.9
2022-11-21T02:07:34.163Z,3.9
2022-11-21T02:08:40.436Z,3.9
2022-11-21T02:09:46.708Z,3.9
2022-11-21T02:10:52.981Z,3.9
2022-11-21T02:11:59.258Z,3.9
2022-11-21T02:13:05.525Z,3.9
2022-11-21T02:14:11.804Z,3.9
2022-11-21T02:15:18.065Z,3.9
2022-11-21T02:16:24.347Z,3.9
2022-11-21T02:17:30.613Z,3.9
2022-11-21T02:18:36.889Z,3.9
2022-11-21T02:19:42.175Z,3.9
2022-11-21T02:20:48.449Z,3.9
2022-11-21T02:21:54.719Z,3.9
2022-11-21T02:23:00.991Z,3.9
2022-11-21T02:24:07.258Z,4
2022-11-21T02:25:13.537Z,4
2022-11-21T02:26:19.814Z,4
2022-11-21T02:27:25.105Z,4
2022-11-21T02:28:30.392Z,4
2022-11-21T02:29:36.665Z,4
2022-11-21T02:30:42.936Z,4
2022-11-21T02:31:49.210Z,4.1
2022-11-21T02:32:55.486Z,4.1
2022-11-21T02:34:01.755Z,4.1
2022-11-21T02:35:08.049Z,4.1
2022-11-21T02:36:14.303Z,4.1
2022-11-21T02:37:20.576Z,4.1
2022-11-21T02:38:26.850Z,4.1
2022-11-21T02:39:33.109Z,4.1
2022-11-21T02:40:39.391Z,4.1
2022-11-21T02:41:45.660Z,4.1
2022-11-21T02:42:50.977Z,4.2
2022-11-21T02:43:57.220Z,4.2
2022-11-21T02:45:03.500Z,4.2
2022-11-21T02:46:09.766Z,4.2
2022-11-21T02:47:16.038Z,4.2
2022-11-21T02:48:22.330Z,4.2
2022-11-21T02:49:28.580Z,4.1
2022-11-21T02:50:33.881Z,4.1
2022-11-21T02:51:39.163Z,4.1
2022-11-21T02:52:44.468Z,4.2
2022-11-21T02:53:49.771Z,4.2
2022-11-21T02:54:55.067Z,4.2
2022-11-21T02:56:00.348Z,4.2
2022-11-21T02:57:06.611Z,4.2
2022-11-21T02:58:12.904Z,4.2
2022-11-21T02:59:19.160Z,4.2
2022-11-21T03:00:25.448Z,4.2
2022-11-21T03:01:31.709Z,4.2
2022-11-21T03:02:37.976Z,4.2
2022-11-21T03:03:44.250Z,4.2
2022-11-21T03:04:50.526Z,4.2
2022-11-21T03:05:56.791Z,4.2
2022-11-21T03:07:03.072Z,4.2
2022-11-21T03:08:09.339Z,4.2
2022-11-21T03:09:15.626Z,4.2
2022-11-21T03:10:20.898Z,4.2
2022-11-21T03:11:27.164Z,4.1
2022-11-21T03:12:33.475Z,4.1
2022-11-21T03:13:39.713Z,4.1
2022-11-21T03:14:45.005Z,4.2
2022-11-21T03:15:51.281Z,4.1
2022-11-21T03:16:57.556Z,4.1
2022-11-21T03:18:02.853Z,4.1
2022-11-21T03:19:08.146Z,4.1
2022-11-21T03:20:13.440Z,4.1
2022-11-21T03:21:18.734Z,4.1
2022-11-21T03:22:24.997Z,4.1
2022-11-21T03:23:31.273Z,4.1
2022-11-21T03:24:37.544Z,4.1
2022-11-21T03:25:43.826Z,4
2022-11-21T03:26:50.087Z,4
2022-11-21T03:27:56.361Z,4.1
2022-11-21T03:29:02.629Z,4.1
2022-11-21T03:30:08.919Z,4.1
2022-11-21T03:31:15.192Z,4
2022-11-21T03:32:21.448Z,4.1
2022-11-21T03:33:27.722Z,4.1
2022-11-21T03:34:34.013Z,4
2022-11-21T03:35:39.291Z,4
2022-11-21T03:36:45.560Z,4
2022-11-21T03:37:51.837Z,4
2022-11-21T03:38:58.103Z,4.1
2022-11-21T03:40:04.377Z,4.1
2022-11-21T03:41:10.658Z,4.1
2022-11-21T03:42:16.924Z,4.1
2022-11-21T03:43:22.223Z,4.1
2022-11-21T03:44:27.512Z,4.1
2022-11-21T03:45:32.806Z,4.1
2022-11-21T03:46:38.093Z,4.1
2022-11-21T03:47:44.362Z,4.1
2022-11-21T03:48:50.637Z,4.1
2022-11-21T03:49:56.908Z,4.1
2022-11-21T03:51:03.186Z,4.1
2022-11-21T03:52:09.457Z,4.1
2022-11-21T03:53:15.726Z,4.1
2022-11-21T03:54:22.001Z,4.1
2022-11-21T03:55:28.280Z,4.1
2022-11-21T03:56:34.554Z,4.1
2022-11-21T03:57:40.816Z,4.1
2022-11-21T03:58:47.096Z,4.1
2022-11-21T03:59:53.363Z,4.1
2022-11-21T04:00:58.649Z,4.1
2022-11-21T04:02:04.922Z,4.1
2022-11-21T04:03:11.190Z,4.1
2022-11-21T04:04:17.459Z,4.1
2022-11-21T04:05:23.755Z,4.1
2022-11-21T04:06:30.017Z,4.1
2022-11-21T04:07:36.279Z,4.1
2022-11-21T04:08:41.579Z,4.1
2022-11-21T04:09:46.877Z,4.1
2022-11-21T04:10:53.150Z,4.1
2022-11-21T04:11:59.425Z,4.1
2022-11-21T04:13:04.713Z,4.1
2022-11-21T04:14:10.003Z,4.1
2022-11-21T04:15:16.275Z,4.1
2022-11-21T04:16:22.544Z,4.1
2022-11-21T04:17:28.822Z,4.1
2022-11-21T04:18:35.090Z,4.1
2022-11-21T04:19:41.361Z,4.1
2022-11-21T04:20:47.642Z,4.1
2022-11-21T04:21:53.907Z,4.1
2022-11-21T04:23:00.200Z,4.1
2022-11-21T04:24:06.454Z,4.1
2022-11-21T04:25:12.738Z,4.1
2022-11-21T04:26:19.002Z,4.1
2022-11-21T04:27:25.273Z,4.1
2022-11-21T04:28:30.556Z,4.1
2022-11-21T04:29:36.841Z,4.1
2022-11-21T04:30:43.102Z,4.1
2022-11-21T04:31:49.379Z,4.1
2022-11-21T04:32:55.650Z,4.1
2022-11-21T04:34:01.923Z,4.1
2022-11-21T04:35:08.191Z,4.1
2022-11-21T04:36:13.498Z,4
2022-11-21T04:37:18.780Z,4
2022-11-21T04:38:25.061Z,4
2022-11-21T04:39:31.327Z,4
2022-11-21T04:40:37.598Z,4
2022-11-21T04:41:43.873Z,4
2022-11-21T04:42:50.143Z,4
2022-11-21T04:43:56.422Z,4
2022-11-21T04:45:02.689Z,4
2022-11-21T04:46:08.965Z,4
2022-11-21T04:47:15.237Z,3.9
2022-11-21T04:48:21.512Z,4
2022-11-21T04:49:27.770Z,3.9
2022-11-21T04:50:34.061Z,3.9
2022-11-21T04:51:39.335Z,3.9
2022-11-21T04:52:45.610Z,3.9
2022-11-21T04:53:51.887Z,3.9
2022-11-21T04:54:58.159Z,3.9
2022-11-21T04:56:04.430Z,3.8
2022-11-21T04:57:10.761Z,3.8
2022-11-21T04:58:16.981Z,3.8
2022-11-21T04:59:22.272Z,3.8
2022-11-21T05:00:27.586Z,3.8
2022-11-21T05:01:32.853Z,3.8
2022-11-21T05:02:38.163Z,3.8
2022-11-21T05:03:44.418Z,3.8
2022-11-21T05:04:50.701Z,3.8
2022-11-21T05:05:56.971Z,3.8
2022-11-21T05:07:03.316Z,3.8
2022-11-21T05:08:09.506Z,3.8
2022-11-21T05:09:15.776Z,3.8
2022-11-21T05:10:22.058Z,3.8
2022-11-21T05:11:28.402Z,3.8
2022-11-21T05:12:34.597Z,3.8
2022-11-21T05:13:40.892Z,3.8
2022-11-21T05:14:47.158Z,3.8
2022-11-21T05:15:53.416Z,3.8
2022-11-21T05:16:58.706Z,3.7
2022-11-21T05:18:04.974Z,3.7
2022-11-21T05:19:11.243Z,3.7
2022-11-21T05:20:17.519Z,3.7
2022-11-21T05:21:23.791Z,3.7
2022-11-21T05:22:30.068Z,3.7
2022-11-21T05:23:36.336Z,3.7
2022-11-21T05:24:41.638Z,3.7
2022-11-21T05:25:46.936Z,3.6
2022-11-21T05:26:52.221Z,3.6
2022-11-21T05:27:57.518Z,3.6
2022-11-21T05:29:03.791Z,3.6
2022-11-21T05:30:10.063Z,3.6
2022-11-21T05:31:16.322Z,3.5
2022-11-21T05:32:22.601Z,3.5
2022-11-21T05:33:28.889Z,3.5
2022-11-21T05:34:35.148Z,3.5
2022-11-21T05:35:41.425Z,3.5
2022-11-21T05:36:47.692Z,3.5
2022-11-21T05:37:53.971Z,3.5
2022-11-21T05:39:00.233Z,3.5
2022-11-21T05:40:06.515Z,3.5
2022-11-21T05:41:12.778Z,3.5
2022-11-21T05:42:18.061Z,3.5
2022-11-21T05:43:24.361Z,3.4
2022-11-21T05:44:30.640Z,3.5
2022-11-21T05:45:36.929Z,3.4
2022-11-21T05:46:43.157Z,3.4
2022-11-21T05:47:49.425Z,3.4
2022-11-21T05:48:55.703Z,3.3
2022-11-21T05:50:00.996Z,3.4
2022-11-21T05:51:06.288Z,3.3
2022-11-21T05:52:11.593Z,3.3
2022-11-21T05:53:16.875Z,3.3
2022-11-21T05:54:23.155Z,3.3
2022-11-21T05:55:29.419Z,3.3
2022-11-21T05:56:35.701Z,3.3
2022-11-21T05:57:41.967Z,3.3
2022-11-21T05:58:48.234Z,3.3
2022-11-21T05:59:54.512Z,3.3
2022-11-21T06:01:00.786Z,3.2
2022-11-21T06:02:07.064Z,3.2
2022-11-21T06:03:13.329Z,3.2
2022-11-21T06:04:19.622Z,3.2
2022-11-21T06:05:25.868Z,3.2
2022-11-21T06:06:32.144Z,3.2
2022-11-21T06:07:37.438Z,3.2
2022-11-21T06:08:43.709Z,3.2
2022-11-21T06:09:49.973Z,3.2
2022-11-21T06:10:56.248Z,3.2
2022-11-21T06:12:02.519Z,3.2
2022-11-21T06:13:08.791Z,3.2
2022-11-21T06:14:15.077Z,3.3
2022-11-21T06:15:20.377Z,3.3
2022-11-21T06:16:25.692Z,3.3
2022-11-21T06:17:30.951Z,3.3
2022-11-21T06:18:37.218Z,3.3
2022-11-21T06:19:42.514Z,3.3
2022-11-21T06:20:48.784Z,3.3
2022-11-21T06:21:55.059Z,3.3
2022-11-21T06:23:01.321Z,3.3
2022-11-21T06:24:07.606Z,3.2
2022-11-21T06:25:13.899Z,3.3
2022-11-21T06:26:20.248Z,3.3
2022-11-21T06:27:26.422Z,3.3
2022-11-21T06:28:32.695Z,3.2
2022-11-21T06:29:39.016Z,3.2
2022-11-21T06:30:45.243Z,3.2
2022-11-21T06:31:51.509Z,3.2
2022-11-21T06:32:57.809Z,3.2
2022-11-21T06:34:03.145Z,3.2
2022-11-21T06:35:09.383Z,3.2
2022-11-21T06:36:15.656Z,3.2
2022-11-21T06:37:21.937Z,3.2
2022-11-21T06:38:28.202Z,3.2
2022-11-21T06:39:34.439Z,3.2
2022-11-21T06:40:39.734Z,3.2
2022-11-21T06:41:45.020Z,3.2
2022-11-21T06:42:50.339Z,3.2
2022-11-21T06:43:55.605Z,3.2
2022-11-21T06:45:01.886Z,3.2
2022-11-21T06:46:08.148Z,3.2
2022-11-21T06:47:14.425Z,3.2
2022-11-21T06:48:20.699Z,3.1
2022-11-21T06:49:26.967Z,3.2
2022-11-21T06:50:33.239Z,3.2
2022-11-21T06:51:39.516Z,3.2
2022-11-21T06:52:45.782Z,3.2
2022-11-21T06:53:52.083Z,3.1
2022-11-21T06:54:58.345Z,3.1
2022-11-21T06:56:03.620Z,3.1
2022-11-21T06:57:09.901Z,3.1
2022-11-21T06:58:16.196Z,3.1
2022-11-21T06:59:22.510Z,3.1
2022-11-21T07:00:28.739Z,3.1
2022-11-21T07:01:34.995Z,3
2022-11-21T07:02:41.260Z,3
2022-11-21T07:03:47.531Z,3.1
2022-11-21T07:04:53.805Z,3
2022-11-21T07:05:59.143Z,3
2022-11-21T07:07:04.381Z,3
2022-11-21T07:08:09.689Z,3
2022-11-21T07:09:14.976Z,3.1
2022-11-21T07:10:21.253Z,3
2022-11-21T07:11:27.545Z,3
2022-11-21T07:12:33.794Z,3.1
2022-11-21T07:13:40.075Z,3
2022-11-21T07:14:46.338Z,3.1
2022-11-21T07:15:52.637Z,3
2022-11-21T07:16:58.929Z,3
2022-11-21T07:18:05.161Z,3.1
2022-11-21T07:19:11.425Z,3.1
2022-11-21T07:20:17.700Z,3.1
2022-11-21T07:21:23.966Z,3.1
2022-11-21T07:22:30.284Z,3.1
2022-11-21T07:23:35.537Z,3.1
2022-11-21T07:24:41.837Z,3.1
2022-11-21T07:25:48.073Z,3.1
2022-11-21T07:26:54.350Z,3.1
2022-11-21T07:28:00.645Z,3.1
2022-11-21T07:29:06.891Z,3.1
2022-11-21T07:30:13.172Z,3.2
2022-11-21T07:31:18.469Z,3.2
2022-11-21T07:32:23.747Z,3.2
2022-11-21T07:33:29.054Z,3.2
2022-11-21T07:34:34.439Z,3.2
2022-11-21T07:35:40.686Z,3.2
2022-11-21T07:36:46.886Z,3.2
2022-11-21T07:37:53.165Z,3.3
2022-11-21T07:38:59.429Z,3.2
2022-11-21T07:40:05.699Z,3.3
2022-11-21T07:41:11.975Z,3.3
2022-11-21T07:42:18.244Z,3.3
2022-11-21T07:43:24.520Z,3.3
2022-11-21T07:44:30.791Z,3.3
2022-11-21T07:45:37.084Z,3.3
2022-11-21T07:46:43.336Z,3.4
2022-11-21T07:47:49.612Z,3.4
2022-11-21T07:48:54.898Z,3.4
2022-11-21T07:50:01.164Z,3.4
2022-11-21T07:51:07.439Z,3.4
2022-11-21T07:52:13.710Z,3.5
2022-11-21T07:53:19.985Z,3.5
2022-11-21T07:54:26.257Z,3.5
2022-11-21T07:55:32.533Z,3.6
2022-11-21T07:56:37.825Z,3.5
2022-11-21T07:57:43.120Z,3.6
2022-11-21T07:58:49.385Z,3.6
2022-11-21T07:59:54.725Z,3.6
2022-11-21T08:01:00.995Z,3.6
2022-11-21T08:02:06.349Z,3.7
2022-11-21T08:03:12.730Z,3.7
2022-11-21T08:04:18.829Z,3.7
2022-11-21T08:05:25.066Z,3.7
2022-11-21T08:06:31.432Z,3.8
2022-11-21T08:07:37.609Z,3.8
2022-11-21T08:08:44.601Z,3.8
2022-11-21T08:09:50.250Z,3.8
2022-11-21T08:10:56.438Z,3.8
2022-11-21T08:12:02.751Z,3.8
2022-11-21T08:13:08.967Z,3.9
2022-11-21T08:14:15.243Z,3.9
2022-11-21T08:15:21.586Z,3.9
2022-11-21T08:16:26.821Z,4
2022-11-21T08:17:33.086Z,4
2022-11-21T08:18:39.352Z,4
2022-11-21T08:19:45.620Z,4.1
2022-11-21T08:20:51.891Z,4.1
2022-11-21T08:21:58.171Z,4.1
2022-11-21T08:23:03.482Z,4.2
2022-11-21T08:24:08.753Z,4.2
2022-11-21T08:25:14.056Z,4.3
2022-11-21T08:26:19.341Z,4.3
2022-11-21T08:27:25.620Z,4.4
2022-11-21T08:28:31.899Z,4.4
2022-11-21T08:29:38.155Z,4.4
2022-11-21T08:30:44.442Z,4.4
2022-11-21T08:31:50.706Z,4.4
2022-11-21T08:32:56.981Z,4.4
2022-11-21T08:34:03.245Z,4.4
2022-11-21T08:35:09.613Z,4.5
2022-11-21T08:36:15.871Z,4.5
2022-11-21T08:37:22.058Z,4.5
2022-11-21T08:38:28.337Z,4.6
2022-11-21T08:39:34.646Z,4.6
2022-11-21T08:40:39.893Z,4.7
2022-11-21T08:41:46.207Z,4.7
2022-11-21T08:42:52.443Z,4.7
2022-11-21T08:43:58.707Z,4.8
2022-11-21T08:45:04.980Z,4.8
2022-11-21T08:46:11.256Z,4.8
2022-11-21T08:47:17.531Z,4.9
2022-11-21T08:48:22.947Z,4.9
2022-11-21T08:49:28.141Z,4.9
2022-11-21T08:50:33.414Z,4.9
2022-11-21T08:51:38.707Z,4.9
2022-11-21T08:52:44.972Z,4.9
2022-11-21T08:53:51.259Z,5
2022-11-21T08:54:57.519Z,4.9
2022-11-21T08:56:03.794Z,5
2022-11-21T08:57:10.078Z,5
2022-11-21T08:58:16.339Z,5
2022-11-21T08:59:22.603Z,5
2022-11-21T09:00:28.878Z,5
2022-11-21T09:01:35.151Z,5
2022-11-21T09:02:41.449Z,5.1
2022-11-21T09:03:47.695Z,5.1
2022-11-21T09:04:54.040Z,5.1
2022-11-21T09:05:59.253Z,5.1
2022-11-21T09:07:05.531Z,5.1
2022-11-21T09:08:11.828Z,5.2
2022-11-21T09:09:18.077Z,5.2
2022-11-21T09:10:24.343Z,5.2
2022-11-21T09:11:30.651Z,5.2
2022-11-21T09:12:36.943Z,5.3
2022-11-21T09:13:42.230Z,5.3
2022-11-21T09:14:47.659Z,5.3
2022-11-21T09:15:52.945Z,5.3
2022-11-21T09:16:58.099Z,5.3
2022-11-21T09:18:04.483Z,5.3
2022-11-21T09:19:10.729Z,5.3
2022-11-21T09:20:17.076Z,5.4
2022-11-21T09:21:23.197Z,5.4
2022-11-21T09:22:29.442Z,5.4
2022-11-21T09:23:35.697Z,5.4
2022-11-21T09:25:48.239Z,5.5
2022-11-21T09:26:54.520Z,5.6
2022-11-21T09:28:00.778Z,5.6
2022-11-21T09:29:07.100Z,5.7
2022-11-21T09:30:13.324Z,5.7
2022-11-21T09:31:18.660Z,5.8
2022-11-21T09:32:24.886Z,5.8
2022-11-21T09:33:31.177Z,5.9
2022-11-21T09:34:37.550Z,5.9
2022-11-21T09:35:43.708Z,6
2022-11-21T09:36:49.992Z,6
2022-11-21T09:37:56.277Z,6.1
2022-11-21T09:39:02.567Z,6.1
2022-11-21T09:40:07.820Z,6.1
2022-11-21T09:41:13.111Z,6.1
2022-11-21T09:42:19.436Z,6.1
2022-11-21T09:43:25.691Z,6.1
2022-11-21T09:44:31.961Z,6.2
2022-11-21T09:45:37.306Z,6.2
2022-11-21T09:46:42.509Z,6.3
2022-11-21T09:47:48.862Z,6.3
2022-11-21T09:48:55.091Z,6.4
2022-11-21T09:50:01.472Z,6.5
2022-11-21T09:51:07.678Z,6.5
2022-11-21T09:52:13.962Z,6.6
2022-11-21T09:53:20.155Z,6.6
2022-11-21T09:54:26.436Z,6.5
2022-11-21T09:55:32.693Z,6.6
2022-11-21T09:56:38.955Z,6.5
2022-11-21T09:57:45.228Z,6.6
2022-11-21T09:58:51.502Z,6.7
2022-11-21T09:59:57.791Z,6.7
2022-11-21T10:01:03.056Z,6.7
2022-11-21T10:02:09.354Z,6.7
2022-11-21T10:03:15.711Z,6.6
2022-11-21T10:04:21.901Z,6.6
2022-11-21T10:05:28.166Z,6.6
2022-11-21T10:06:34.525Z,6.5
2022-11-21T10:07:40.691Z,6.6
2022-11-21T10:08:46.007Z,6.6
2022-11-21T10:09:51.286Z,6.6
2022-11-21T10:10:57.553Z,6.7
2022-11-21T10:12:02.849Z,6.7
2022-11-21T10:13:08.144Z,6.7
2022-11-21T10:14:14.472Z,6.8
2022-11-21T10:15:20.687Z,6.9
2022-11-21T10:16:26.962Z,6.9
2022-11-21T10:17:33.255Z,7
2022-11-21T10:18:39.505Z,7
2022-11-21T10:19:45.773Z,7
2022-11-21T10:20:52.055Z,7
2022-11-21T10:21:58.351Z,7.1
2022-11-21T10:23:04.587Z,7.1
2022-11-21T10:24:10.858Z,7.1
2022-11-21T10:25:17.256Z,7.1
2022-11-21T10:26:23.401Z,7.1
2022-11-21T10:27:28.723Z,7.2
2022-11-21T10:28:34.992Z,7.2
2022-11-21T10:29:41.252Z,7.2
2022-11-21T10:30:47.623Z,7.3
2022-11-21T10:31:53.791Z,7.3
2022-11-21T10:33:00.087Z,7.3
2022-11-21T10:34:06.373Z,7.3
2022-11-21T10:35:11.624Z,7.2
2022-11-21T10:36:16.979Z,7.2
2022-11-21T10:37:22.228Z,7.2
2022-11-21T10:38:27.513Z,7.2
2022-11-21T10:39:32.795Z,7.1
2022-11-21T10:40:39.080Z,7
2022-11-21T10:41:45.373Z,7
2022-11-21T10:42:51.607Z,7
2022-11-21T10:43:57.934Z,6.9
2022-11-21T10:45:04.156Z,7
2022-11-21T10:46:10.426Z,7
2022-11-21T10:47:16.711Z,7
2022-11-21T10:48:22.975Z,7
2022-11-21T10:49:29.247Z,7
2022-11-21T10:50:35.514Z,6.9
2022-11-21T10:51:41.787Z,6.9
2022-11-21T10:52:48.060Z,6.9
2022-11-21T10:53:53.364Z,6.9
2022-11-21T10:54:59.621Z,6.9
2022-11-21T10:56:05.912Z,6.9
2022-11-21T10:57:12.178Z,6.9
2022-11-21T10:58:18.462Z,6.9
2022-11-21T10:59:24.711Z,6.9
2022-11-21T11:00:30.981Z,6.8
2022-11-21T11:01:36.301Z,6.8
2022-11-21T11:02:41.558Z,6.8
2022-11-21T11:04:53.133Z,6.9
2022-11-21T11:05:58.476Z,7
2022-11-21T11:07:03.717Z,7.1
2022-11-21T11:08:09.992Z,7.1
2022-11-21T11:09:16.952Z,7.1
2022-11-21T11:10:22.565Z,7.1
2022-11-21T11:11:28.807Z,7.1
2022-11-21T11:12:35.078Z,7.1
2022-11-21T11:13:41.350Z,7.1
2022-11-21T11:14:47.694Z,7.1
2022-11-21T11:15:53.910Z,7.2
2022-11-21T11:17:00.179Z,7.2
2022-11-21T11:18:06.443Z,7.3
2022-11-21T11:19:12.744Z,7.4
2022-11-21T11:20:18.988Z,7.5
2022-11-21T11:21:24.268Z,7.5
2022-11-21T11:22:30.546Z,7.5
2022-11-21T11:23:36.879Z,7.5
2022-11-21T11:24:43.091Z,7.4
2022-11-21T11:25:49.404Z,7.5
2022-11-21T11:26:55.629Z,7.5
2022-11-21T11:28:01.903Z,7.5
2022-11-21T11:29:07.199Z,7.5
2022-11-21T11:30:12.477Z,7.4
2022-11-21T11:31:18.761Z,7.4
2022-11-21T11:32:25.130Z,7.4
2022-11-21T11:33:30.333Z,7.5
2022-11-21T11:34:35.621Z,7.6
2022-11-21T11:35:41.904Z,7.6
2022-11-21T11:36:48.228Z,7.7
2022-11-21T11:37:54.443Z,7.8
2022-11-21T11:39:00.718Z,7.9
2022-11-21T11:40:07.040Z,8
2022-11-21T11:41:13.259Z,8.1
2022-11-21T11:42:19.525Z,8.3
2022-11-21T11:43:25.796Z,8.3
2022-11-21T11:44:32.084Z,8.3
2022-11-21T11:45:38.400Z,8.3
2022-11-21T11:46:44.611Z,8.3
2022-11-21T11:47:50.894Z,8.2
2022-11-21T11:48:56.172Z,8.2
2022-11-21T11:50:02.443Z,8.2
2022-11-21T11:51:08.711Z,8.3
2022-11-21T11:52:15.003Z,8.3
2022-11-21T11:54:27.542Z,8.4
2022-11-21T11:55:33.801Z,8.4
2022-11-21T11:56:40.072Z,8.4
2022-11-21T11:57:45.367Z,8.4
2022-11-21T11:58:50.676Z,8.4
2022-11-21T11:59:56.941Z,8.4
2022-11-21T12:01:02.232Z,8.4
2022-11-21T12:02:07.521Z,8.4
2022-11-21T12:03:13.793Z,8.4
2022-11-21T12:04:20.073Z,8.4
2022-11-21T12:05:26.357Z,8.5
2022-11-21T12:06:32.603Z,8.5
2022-11-21T12:07:38.888Z,8.6
2022-11-21T12:08:45.147Z,8.7
2022-11-21T12:10:57.693Z,8.6
2022-11-21T12:12:03.976Z,8.6
2022-11-21T12:13:10.245Z,8.6
2022-11-21T12:14:16.519Z,8.6
2022-11-21T12:15:22.786Z,8.7
2022-11-21T12:16:28.084Z,8.7
2022-11-21T12:17:34.353Z,8.8
2022-11-21T12:18:40.616Z,8.8
2022-11-21T12:19:46.891Z,8.9
2022-11-21T12:20:53.154Z,8.9
2022-11-21T12:21:59.431Z,8.9
2022-11-21T12:23:05.758Z,8.9
2022-11-21T12:24:11.977Z,8.9
2022-11-21T12:25:17.275Z,8.9
2022-11-21T12:26:22.558Z,9
2022-11-21T12:27:28.853Z,8.9
2022-11-21T12:28:35.113Z,8.9
2022-11-21T12:29:41.377Z,9
2022-11-21T12:30:47.647Z,9
2022-11-21T12:31:54.007Z,8.9
2022-11-21T12:32:59.217Z,8.8
2022-11-21T12:34:05.539Z,8.6
2022-11-21T12:35:10.790Z,8.6
2022-11-21T12:36:17.112Z,8.7
2022-11-21T12:37:23.322Z,8.7
2022-11-21T12:38:29.614Z,8.7
2022-11-21T12:39:35.876Z,8.7
2022-11-21T12:40:42.140Z,8.8
2022-11-21T12:41:48.473Z,8.8
2022-11-21T12:42:54.697Z,8.7
2022-11-21T12:44:00.957Z,8.7
2022-11-21T12:45:07.239Z,8.8
2022-11-21T12:46:13.541Z,8.8
2022-11-21T12:47:19.827Z,8.6
2022-11-21T12:48:26.057Z,8.6
2022-11-21T12:49:31.331Z,8.6
2022-11-21T12:50:37.618Z,8.6
2022-11-21T12:51:43.884Z,8.5
2022-11-21T12:52:50.148Z,8.5
2022-11-21T12:53:56.424Z,8.5
2022-11-21T12:55:02.687Z,8.5
2022-11-21T12:56:08.103Z,8.5
2022-11-21T12:57:13.345Z,8.5
2022-11-21T12:58:19.556Z,8.5
2022-11-21T12:59:25.871Z,8.5
2022-11-21T13:00:32.143Z,8.4
2022-11-21T13:01:38.371Z,8.4
2022-11-21T13:02:44.703Z,8.5
2022-11-21T13:03:50.911Z,8.5
2022-11-21T13:04:57.181Z,8.5
2022-11-21T13:06:03.484Z,8.5
2022-11-21T13:07:09.729Z,8.5
2022-11-21T13:08:15.030Z,8.6
2022-11-21T13:09:20.327Z,8.6
2022-11-21T13:10:26.620Z,8.6
2022-11-21T13:11:32.867Z,8.7
2022-11-21T13:12:39.220Z,8.6
2022-11-21T13:13:45.406Z,8.6
2022-11-21T13:14:51.696Z,8.6
2022-11-21T13:15:58.009Z,8.6
2022-11-21T13:17:04.352Z,8.6
2022-11-21T13:18:10.504Z,8.7
2022-11-21T13:19:16.766Z,8.7
2022-11-21T13:20:23.054Z,8.7
2022-11-21T13:21:29.316Z,8.7
2022-11-21T13:22:35.599Z,8.7
2022-11-21T13:23:40.939Z,8.7
2022-11-21T13:24:47.188Z,8.7
2022-11-21T13:25:53.431Z,8.7
2022-11-21T13:26:59.682Z,8.6
2022-11-21T13:28:05.990Z,8.6
2022-11-21T13:29:12.227Z,8.6
2022-11-21T13:30:18.499Z,8.6
2022-11-21T13:31:23.800Z,8.6
2022-11-21T13:32:29.284Z,8.6
2022-11-21T13:33:35.365Z,8.6
2022-11-21T13:34:41.637Z,8.6
2022-11-21T13:35:47.912Z,8.5
2022-11-21T13:36:53.243Z,8.5
2022-11-21T13:37:58.490Z,8.4
2022-11-21T13:39:04.761Z,8.3
2022-11-21T13:40:11.043Z,8.3
2022-11-21T13:41:17.341Z,8.3
2022-11-21T13:42:23.602Z,8.3
2022-11-21T13:43:29.867Z,8.3
2022-11-21T13:44:36.126Z,8.2
2022-11-21T13:45:42.397Z,8.2
2022-11-21T13:46:48.665Z,8.2
2022-11-21T13:47:54.951Z,8.2
2022-11-21T13:49:01.220Z,8.2
2022-11-21T13:50:07.495Z,8.1
2022-11-21T13:51:13.749Z,8.1
2022-11-21T13:52:19.066Z,8.1
2022-11-21T13:53:25.322Z,8.1
2022-11-21T13:54:31.642Z,8.1
2022-11-21T13:55:37.862Z,8
2022-11-21T13:56:44.148Z,8
2022-11-21T13:57:50.408Z,8
2022-11-21T13:58:56.676Z,8
2022-11-21T14:00:02.003Z,8
2022-11-21T14:01:07.281Z,8
2022-11-21T14:02:13.531Z,7.9
2022-11-21T14:03:19.831Z,7.9
2022-11-21T14:04:26.102Z,7.9
2022-11-21T14:06:38.624Z,7.9
2022-11-21T14:07:43.921Z,7.8
2022-11-21T14:08:49.210Z,7.8
2022-11-21T14:09:55.504Z,7.8
2022-11-21T14:11:01.754Z,7.8
2022-11-21T14:12:08.026Z,7.8
2022-11-21T14:13:14.309Z,7.8
2022-11-21T14:14:20.572Z,7.7
2022-11-21T14:15:26.881Z,7.7
2022-11-21T14:16:33.113Z,7.7
2022-11-21T14:17:39.400Z,7.7
2022-11-21T14:18:44.671Z,7.7
2022-11-21T14:19:50.969Z,7.7
2022-11-21T14:20:57.235Z,7.7
2022-11-21T14:22:03.577Z,7.7
2022-11-21T14:23:09.780Z,7.7
2022-11-21T14:24:16.046Z,7.6
2022-11-21T14:25:22.357Z,7.6
2022-11-21T14:26:28.692Z,7.6
2022-11-21T14:27:35.043Z,7.6
2022-11-21T14:28:41.296Z,7.6
2022-11-21T14:29:47.589Z,7.6
2022-11-21T14:30:53.879Z,7.6
2022-11-21T14:32:00.114Z,7.6
2022-11-21T14:33:05.396Z,7.5
2022-11-21T14:34:11.678Z,7.5
2022-11-21T14:35:17.972Z,7.5
2022-11-21T14:36:24.182Z,7.5
2022-11-21T14:37:30.320Z,7.4
2022-11-21T14:39:43.031Z,7.4
2022-11-21T14:40:49.327Z,7.4
2022-11-21T14:41:55.586Z,7.4
2022-11-21T14:43:01.683Z,7.4
2022-11-21T14:44:08.116Z,7.3
2022-11-21T14:45:14.302Z,7.3
2022-11-21T14:46:20.678Z,7.3
2022-11-21T14:47:25.808Z,7.3
2022-11-21T14:48:32.237Z,7.3
2022-11-21T14:49:38.521Z,7.3
2022-11-21T14:50:44.664Z,7.3
2022-11-21T14:51:51.072Z,7.3
2022-11-21T14:52:57.271Z,7.3
2022-11-21T14:54:03.419Z,7.3
2022-11-21T14:55:09.704Z,7.2
2022-11-21T14:56:16.139Z,7.2
2022-11-21T14:57:22.242Z,7.2
2022-11-21T14:58:28.630Z,7.2
2022-11-21T14:59:34.779Z,7.2
2022-11-21T15:00:41.047Z,7.1
2022-11-21T15:01:46.386Z,7.1
2022-11-21T15:02:52.620Z,7.1
2022-11-21T15:03:59.048Z,7.1
2022-11-21T15:05:05.298Z,7.1
2022-11-21T15:06:11.498Z,7.1
2022-11-21T15:07:17.891Z,7.1
2022-11-21T15:08:24.145Z,7.1
2022-11-21T15:09:30.399Z,7.1
2022-11-21T15:10:36.513Z,7
2022-11-21T15:11:42.951Z,7
2022-11-21T15:12:49.215Z,7
2022-11-21T15:13:55.475Z,7
2022-11-21T15:15:01.587Z,7
2022-11-21T15:16:06.884Z,7
2022-11-21T15:17:13.152Z,7
2022-11-21T15:18:19.610Z,6.9
2022-11-21T15:19:25.732Z,6.9
2022-11-21T15:20:32.136Z,6.9
2022-11-21T15:21:38.397Z,6.9
2022-11-21T15:22:44.750Z,6.8
2022-11-21T15:23:50.877Z,6.8